createdAt,value
2022-09-06T00:00:22.949Z,71.2
2022-09-06T00:01:23.597Z,70.7
2022-09-06T00:02:24.182Z,70.9
2022-09-06T00:03:24.756Z,70.6
2022-09-06T00:04:25.416Z,70.9
2022-09-06T00:05:26.145Z,70.6
2022-09-06T00:06:26.740Z,71.3
2022-09-06T00:07:27.334Z,70.6
2022-09-06T00:08:28.077Z,70.4
2022-09-06T00:09:28.691Z,70.6
2022-09-06T00:10:29.286Z,70.4
2022-09-06T00:11:29.880Z,70.9
2022-09-06T00:12:30.495Z,70.6
2022-09-06T00:13:31.095Z,70.6
2022-09-06T00:14:31.685Z,70.7
2022-09-06T00:15:32.306Z,70.9
2022-09-06T00:16:32.929Z,70.9
2022-09-06T00:17:33.491Z,70.9
2022-09-06T00:18:34.085Z,71.0
2022-09-06T00:19:34.679Z,70.3
2022-09-06T00:20:35.274Z,71.1
2022-09-06T00:21:35.868Z,71.0
2022-09-06T00:22:36.463Z,71.0
2022-09-06T00:23:37.057Z,71.0
2022-09-06T00:24:37.653Z,70.8
2022-09-06T00:25:38.251Z,71.5
2022-09-06T00:26:38.866Z,71.1
2022-09-06T00:27:39.460Z,71.0
2022-09-06T00:28:40.056Z,71.2
2022-09-06T00:29:40.652Z,71.8
2022-09-06T00:30:41.303Z,71.8
2022-09-06T00:31:41.869Z,71.6
2022-09-06T00:32:42.458Z,71.7
2022-09-06T00:33:43.057Z,71.9
2022-09-06T00:34:43.651Z,71.1
2022-09-06T00:35:44.245Z,71.7
2022-09-06T00:36:44.840Z,71.9
2022-09-06T00:37:45.435Z,72.3
2022-09-06T00:38:46.034Z,71.9
2022-09-06T00:39:46.693Z,72.2
2022-09-06T00:40:47.244Z,72.1
2022-09-06T00:41:47.837Z,72.1
2022-09-06T00:42:48.440Z,72.5
2022-09-06T00:43:49.031Z,72.0
2022-09-06T00:44:49.625Z,72.0
2022-09-06T00:45:50.262Z,72.5
2022-09-06T00:46:50.842Z,72.6
2022-09-06T00:47:51.438Z,72.7
2022-09-06T00:48:52.049Z,72.7
2022-09-06T00:49:52.646Z,72.3
2022-09-06T00:50:53.238Z,72.5
2022-09-06T00:51:53.833Z,73.3
2022-09-06T00:52:54.428Z,72.1
2022-09-06T00:53:55.022Z,72.1
2022-09-06T00:54:55.617Z,72.2
2022-09-06T00:55:56.211Z,72.6
2022-09-06T00:56:56.808Z,72.3
2022-09-06T00:57:57.400Z,72.2
2022-09-06T00:58:57.995Z,72.8
2022-09-06T00:59:58.590Z,72.0
2022-09-06T01:00:59.182Z,72.2
2022-09-06T01:01:59.876Z,72.2
2022-09-06T01:03:00.454Z,73.2
2022-09-06T01:04:01.048Z,72.7
2022-09-06T01:05:01.645Z,72.7
2022-09-06T01:06:02.239Z,73.5
2022-09-06T01:07:02.834Z,73.3
2022-09-06T01:08:03.429Z,73.7
2022-09-06T01:09:04.020Z,73.5
2022-09-06T01:10:04.621Z,73.6
2022-09-06T01:11:05.212Z,73.7
2022-09-06T01:12:05.806Z,73.6
2022-09-06T01:13:06.404Z,73.8
2022-09-06T01:14:06.997Z,73.5
2022-09-06T01:15:07.593Z,74.2
2022-09-06T01:16:08.241Z,74.4
2022-09-06T01:17:08.787Z,74.2
2022-09-06T01:18:09.380Z,73.9
2022-09-06T01:19:09.971Z,74.4
2022-09-06T01:20:10.567Z,74.4
2022-09-06T01:21:11.161Z,74.1
2022-09-06T01:22:11.758Z,74.2
2022-09-06T01:23:12.352Z,73.7
2022-09-06T01:24:12.950Z,74.2
2022-09-06T01:25:13.542Z,73.8
2022-09-06T01:26:14.138Z,73.9
2022-09-06T01:27:14.736Z,73.5
2022-09-06T01:28:15.350Z,74.0
2022-09-06T01:29:15.944Z,73.7
2022-09-06T01:30:16.541Z,73.8
2022-09-06T01:31:17.196Z,74.0
2022-09-06T01:32:17.786Z,73.3
2022-09-06T01:33:18.380Z,73.4
2022-09-06T01:34:18.977Z,73.5
2022-09-06T01:35:19.569Z,73.7
2022-09-06T01:36:20.174Z,73.5
2022-09-06T01:37:20.758Z,73.5
2022-09-06T01:38:21.420Z,73.5
2022-09-06T01:39:21.981Z,73.4
2022-09-06T01:40:22.577Z,73.7
2022-09-06T01:41:23.171Z,73.9
2022-09-06T01:42:23.766Z,73.3
2022-09-06T01:43:24.362Z,73.7
2022-09-06T01:44:24.957Z,73.7
2022-09-06T01:45:25.553Z,73.5
2022-09-06T01:46:26.240Z,73.2
2022-09-06T01:47:26.759Z,73.5
2022-09-06T01:48:27.402Z,73.6
2022-09-06T01:49:27.965Z,73.3
2022-09-06T01:50:28.560Z,73.4
2022-09-06T01:51:29.168Z,73.4
2022-09-06T01:52:29.771Z,73.6
2022-09-06T01:53:30.366Z,73.2
2022-09-06T01:54:30.961Z,73.0
2022-09-06T01:55:31.559Z,73.4
2022-09-06T01:56:32.173Z,73.6
2022-09-06T01:57:32.769Z,73.6
2022-09-06T01:58:33.384Z,73.5
2022-09-06T01:59:34.022Z,73.5
2022-09-06T02:00:34.617Z,74.1
2022-09-06T02:01:35.250Z,74.0
2022-09-06T02:02:35.907Z,73.5
2022-09-06T02:03:36.455Z,73.3
2022-09-06T02:04:37.050Z,73.9
2022-09-06T02:05:37.665Z,73.9
2022-09-06T02:06:38.263Z,73.8
2022-09-06T02:07:38.854Z,73.6
2022-09-06T02:08:39.450Z,74.3
2022-09-06T02:09:40.064Z,74.3
2022-09-06T02:10:40.678Z,74.1
2022-09-06T02:11:41.272Z,74.1
2022-09-06T02:12:41.870Z,74.4
2022-09-06T02:13:42.486Z,74.2
2022-09-06T02:14:43.079Z,74.0
2022-09-06T02:15:43.672Z,74.5
2022-09-06T02:16:44.313Z,74.2
2022-09-06T02:17:44.903Z,74.3
2022-09-06T02:18:45.497Z,74.6
2022-09-06T02:19:46.093Z,74.2
2022-09-06T02:20:46.708Z,74.4
2022-09-06T02:21:47.302Z,74.3
2022-09-06T02:22:47.898Z,74.4
2022-09-06T02:23:48.494Z,74.6
2022-09-06T02:24:49.090Z,74.7
2022-09-06T02:25:49.686Z,74.4
2022-09-06T02:26:50.302Z,74.7
2022-09-06T02:27:50.876Z,74.4
2022-09-06T02:28:51.472Z,74.6
2022-09-06T02:29:52.068Z,74.7
2022-09-06T02:30:52.712Z,74.9
2022-09-06T02:31:53.289Z,74.7
2022-09-06T02:32:53.909Z,74.7
2022-09-06T02:33:54.501Z,74.7
2022-09-06T02:34:55.093Z,75.2
2022-09-06T02:35:55.688Z,74.8
2022-09-06T02:36:56.283Z,75.0
2022-09-06T02:37:56.875Z,75.0
2022-09-06T02:38:57.472Z,75.0
2022-09-06T02:39:58.148Z,75.3
2022-09-06T02:40:58.690Z,75.4
2022-09-06T02:41:59.301Z,75.6
2022-09-06T02:42:59.898Z,75.5
2022-09-06T02:44:00.491Z,75.7
2022-09-06T02:45:01.086Z,75.6
2022-09-06T02:46:01.722Z,75.6
2022-09-06T02:47:02.323Z,75.3
2022-09-06T02:48:02.917Z,75.6
2022-09-06T02:49:03.515Z,75.4
2022-09-06T02:50:04.129Z,75.3
2022-09-06T02:51:04.723Z,75.7
2022-09-06T02:52:05.316Z,76.5
2022-09-06T02:53:05.915Z,76.1
2022-09-06T02:54:06.505Z,76.2
2022-09-06T02:55:07.106Z,75.9
2022-09-06T02:56:07.695Z,76.5
2022-09-06T02:57:08.291Z,76.4
2022-09-06T02:58:08.884Z,76.4
2022-09-06T02:59:09.479Z,76.5
2022-09-06T03:00:10.073Z,76.8
2022-09-06T03:01:10.715Z,77.0
2022-09-06T03:02:11.331Z,76.7
2022-09-06T03:03:11.883Z,77.1
2022-09-06T03:04:12.487Z,76.7
2022-09-06T03:05:13.094Z,76.6
2022-09-06T03:06:13.685Z,76.5
2022-09-06T03:07:14.280Z,77.3
2022-09-06T03:08:14.874Z,76.8
2022-09-06T03:09:15.472Z,76.9
2022-09-06T03:10:16.075Z,77.0
2022-09-06T03:11:16.660Z,76.8
2022-09-06T03:12:17.254Z,77.4
2022-09-06T03:13:17.851Z,77.4
2022-09-06T03:14:18.444Z,77.8
2022-09-06T03:15:19.044Z,77.8
2022-09-06T03:16:19.735Z,77.5
2022-09-06T03:17:20.282Z,77.3
2022-09-06T03:18:20.911Z,77.2
2022-09-06T03:19:21.472Z,77.2
2022-09-06T03:20:22.066Z,77.2
2022-09-06T03:21:22.664Z,77.5
2022-09-06T03:22:23.255Z,77.7
2022-09-06T03:23:23.851Z,77.9
2022-09-06T03:24:24.447Z,78.3
2022-09-06T03:25:25.039Z,78.1
2022-09-06T03:26:25.632Z,78.0
2022-09-06T03:27:26.231Z,78.5
2022-09-06T03:28:26.932Z,78.4
2022-09-06T03:29:27.586Z,78.6
2022-09-06T03:30:28.186Z,78.5
2022-09-06T03:31:28.776Z,78.4
2022-09-06T03:32:29.370Z,78.9
2022-09-06T03:33:29.967Z,78.6
2022-09-06T03:34:30.559Z,78.7
2022-09-06T03:35:31.157Z,78.7
2022-09-06T03:36:31.750Z,79.0
2022-09-06T03:37:32.343Z,79.2
2022-09-06T03:38:32.937Z,79.0
2022-09-06T03:39:33.556Z,78.9
2022-09-06T03:40:34.126Z,78.9
2022-09-06T03:41:34.742Z,78.7
2022-09-06T03:42:35.336Z,78.8
2022-09-06T03:43:35.931Z,78.6
2022-09-06T03:44:36.526Z,78.7
2022-09-06T03:45:37.187Z,78.5
2022-09-06T03:46:37.726Z,78.8
2022-09-06T03:47:38.317Z,78.8
2022-09-06T03:48:38.916Z,78.9
2022-09-06T03:49:39.508Z,78.6
2022-09-06T03:50:40.103Z,79.1
2022-09-06T03:51:40.700Z,79.3
2022-09-06T03:52:41.314Z,79.1
2022-09-06T03:53:41.909Z,79.2
2022-09-06T03:54:42.505Z,79.1
2022-09-06T03:55:43.104Z,79.4
2022-09-06T03:56:43.702Z,79.3
2022-09-06T03:57:44.294Z,79.2
2022-09-06T03:58:44.888Z,79.1
2022-09-06T03:59:45.484Z,79.0
2022-09-06T04:00:46.143Z,79.2
2022-09-06T04:01:46.714Z,79.9
2022-09-06T04:02:47.346Z,79.6
2022-09-06T04:03:47.916Z,79.3
2022-09-06T04:04:48.514Z,79.6
2022-09-06T04:05:49.106Z,80.1
2022-09-06T04:06:49.718Z,79.8
2022-09-06T04:07:50.297Z,79.8
2022-09-06T04:08:50.889Z,79.8
2022-09-06T04:09:51.485Z,80.1
2022-09-06T04:10:52.084Z,80.2
2022-09-06T04:11:52.696Z,79.7
2022-09-06T04:12:53.290Z,79.9
2022-09-06T04:13:53.885Z,79.8
2022-09-06T04:14:54.480Z,79.8
2022-09-06T04:15:55.076Z,80.0
2022-09-06T04:16:55.705Z,80.2
2022-09-06T04:17:56.266Z,79.9
2022-09-06T04:18:56.861Z,79.9
2022-09-06T04:19:57.458Z,79.8
2022-09-06T04:20:58.052Z,79.6
2022-09-06T04:21:58.646Z,79.6
2022-09-06T04:22:59.241Z,79.8
2022-09-06T04:23:59.838Z,79.8
2022-09-06T04:25:00.433Z,79.9
2022-09-06T04:26:01.027Z,80.0
2022-09-06T04:27:01.622Z,80.1
2022-09-06T04:28:02.218Z,80.1
2022-09-06T04:29:02.816Z,80.1
2022-09-06T04:30:03.435Z,79.9
2022-09-06T04:31:05.232Z,79.9
2022-09-06T04:32:05.675Z,79.9
2022-09-06T04:33:06.223Z,79.3
2022-09-06T04:34:06.822Z,79.8
2022-09-06T04:35:07.417Z,79.8
2022-09-06T04:36:08.016Z,79.2
2022-09-06T04:37:08.609Z,80.1
2022-09-06T04:38:09.205Z,80.0
2022-09-06T04:39:09.800Z,80.1
2022-09-06T04:40:10.552Z,80.5
2022-09-06T04:41:11.175Z,80.5
2022-09-06T04:42:11.769Z,80.5
2022-09-06T04:43:12.368Z,80.5
2022-09-06T04:44:12.976Z,80.3
2022-09-06T04:45:13.562Z,80.5
2022-09-06T04:46:14.218Z,80.2
2022-09-06T04:47:14.774Z,80.5
2022-09-06T04:48:15.369Z,80.1
2022-09-06T04:49:15.965Z,80.1
2022-09-06T04:50:16.563Z,80.4
2022-09-06T04:51:17.157Z,81.5
2022-09-06T04:52:17.757Z,83.3
2022-09-06T04:53:18.349Z,83.0
2022-09-06T04:54:18.948Z,83.3
2022-09-06T04:55:19.543Z,84.1
2022-09-06T04:56:20.141Z,84.8
2022-09-06T04:57:20.738Z,85.1
2022-09-06T04:58:21.402Z,85.7
2022-09-06T04:59:21.933Z,86.6
2022-09-06T05:00:22.532Z,87.9
2022-09-06T05:01:23.210Z,87.9
2022-09-06T05:02:23.845Z,88.5
2022-09-06T05:03:24.406Z,89.2
2022-09-06T05:04:25.005Z,90.8
2022-09-06T05:05:25.602Z,90.8
2022-09-06T05:06:26.202Z,91.3
2022-09-06T05:07:26.794Z,92.6
2022-09-06T05:08:27.469Z,93.5
2022-09-06T05:09:28.082Z,92.3
2022-09-06T05:10:28.674Z,93.3
2022-09-06T05:11:29.271Z,93.0
2022-09-06T05:12:29.880Z,93.2
2022-09-06T05:13:30.473Z,93.9
2022-09-06T05:14:31.076Z,94.0
2022-09-06T05:15:31.676Z,94.5
2022-09-06T05:16:32.357Z,95.0
2022-09-06T05:17:32.923Z,94.5
2022-09-06T05:18:33.527Z,93.2
2022-09-06T05:19:34.126Z,93.0
2022-09-06T05:20:34.727Z,92.0
2022-09-06T05:21:35.327Z,91.2
2022-09-06T05:22:35.932Z,90.8
2022-09-06T05:23:36.524Z,90.7
2022-09-06T05:24:37.127Z,90.9
2022-09-06T05:25:37.727Z,91.1
2022-09-06T05:26:38.329Z,91.1
2022-09-06T05:27:38.928Z,92.3
2022-09-06T05:28:39.528Z,91.5
2022-09-06T05:29:40.129Z,91.9
2022-09-06T05:30:40.728Z,92.8
2022-09-06T05:31:41.420Z,92.1
2022-09-06T05:32:41.971Z,91.6
2022-09-06T05:33:42.571Z,91.4
2022-09-06T05:34:43.172Z,91.1
2022-09-06T05:35:43.771Z,90.4
2022-09-06T05:36:44.370Z,90.8
2022-09-06T05:37:44.970Z,90.7
2022-09-06T05:38:45.570Z,90.6
2022-09-06T05:39:46.229Z,90.6
2022-09-06T05:40:46.770Z,90.4
2022-09-06T05:41:47.372Z,89.4
2022-09-06T05:42:47.972Z,88.6
2022-09-06T05:43:48.574Z,89.2
2022-09-06T05:44:49.174Z,88.8
2022-09-06T05:45:49.803Z,89.1
2022-09-06T05:46:50.415Z,88.9
2022-09-06T05:47:51.004Z,88.5
2022-09-06T05:48:51.605Z,89.0
2022-09-06T05:49:52.211Z,88.6
2022-09-06T05:50:52.809Z,89.8
2022-09-06T05:51:53.411Z,88.7
2022-09-06T05:52:54.014Z,88.0
2022-09-06T05:53:54.617Z,89.2
2022-09-06T05:54:55.215Z,89.9
2022-09-06T05:55:55.817Z,89.4
2022-09-06T05:56:56.420Z,90.7
2022-09-06T05:57:57.021Z,90.0
2022-09-06T05:58:57.622Z,90.2
2022-09-06T05:59:58.222Z,90.7
2022-09-06T06:00:58.879Z,89.7
2022-09-06T06:01:59.460Z,88.7
2022-09-06T06:03:00.036Z,89.7
2022-09-06T06:04:00.638Z,89.2
2022-09-06T06:05:01.239Z,88.9
2022-09-06T06:06:01.843Z,88.6
2022-09-06T06:07:02.462Z,88.4
2022-09-06T06:08:03.066Z,88.9
2022-09-06T06:09:03.667Z,89.1
2022-09-06T06:10:04.272Z,88.8
2022-09-06T06:11:04.872Z,90.4
2022-09-06T06:12:05.477Z,88.6
2022-09-06T06:13:06.077Z,90.5
2022-09-06T06:14:06.680Z,90.7
2022-09-06T06:15:07.280Z,90.3
2022-09-06T06:16:07.924Z,89.0
2022-09-06T06:17:08.483Z,89.5
2022-09-06T06:18:09.086Z,89.9
2022-09-06T06:19:09.689Z,90.3
2022-09-06T06:20:10.312Z,90.2
2022-09-06T06:21:10.912Z,88.6
2022-09-06T06:22:11.518Z,89.1
2022-09-06T06:23:12.118Z,88.6
2022-09-06T06:24:12.720Z,88.1
2022-09-06T06:25:13.322Z,89.1
2022-09-06T06:26:13.923Z,88.7
2022-09-06T06:27:14.525Z,89.5
2022-09-06T06:28:15.128Z,88.7
2022-09-06T06:29:15.728Z,89.5
2022-09-06T06:30:18.454Z,88.8
2022-09-06T06:31:17.979Z,88.7
2022-09-06T06:32:18.548Z,88.8
2022-09-06T06:33:19.150Z,88.7
2022-09-06T06:34:19.753Z,89.7
2022-09-06T06:35:20.356Z,89.2
2022-09-06T06:36:20.961Z,89.6
2022-09-06T06:37:21.566Z,88.9
2022-09-06T06:38:22.165Z,88.8
2022-09-06T06:39:22.766Z,89.1
2022-09-06T06:40:23.366Z,88.0
2022-09-06T06:41:24.031Z,88.4
2022-09-06T06:42:24.614Z,88.7
2022-09-06T06:43:25.214Z,88.9
2022-09-06T06:44:25.817Z,88.6
2022-09-06T06:45:26.476Z,88.2
2022-09-06T06:46:27.031Z,88.6
2022-09-06T06:47:27.644Z,88.5
2022-09-06T06:48:28.363Z,88.9
2022-09-06T06:49:28.968Z,88.5
2022-09-06T06:50:29.574Z,88.6
2022-09-06T06:51:30.173Z,88.9
2022-09-06T06:52:30.775Z,89.3
2022-09-06T06:53:31.379Z,88.5
2022-09-06T06:54:31.979Z,89.0
2022-09-06T06:55:32.582Z,88.8
2022-09-06T06:56:33.185Z,89.2
2022-09-06T06:57:33.785Z,88.9
2022-09-06T06:58:34.388Z,89.6
2022-09-06T06:59:34.991Z,89.5
2022-09-06T07:00:35.671Z,89.5
2022-09-06T07:01:36.411Z,88.6
2022-09-06T07:02:36.829Z,88.6
2022-09-06T07:03:37.430Z,89.1
2022-09-06T07:04:38.036Z,88.5
2022-09-06T07:07:41.833Z,89.6
2022-09-06T07:08:42.434Z,90.3
2022-09-06T07:10:44.646Z,88.7
2022-09-06T07:11:45.259Z,90.0
2022-09-06T07:12:45.863Z,89.4
2022-09-06T07:13:46.484Z,89.3
2022-09-06T07:14:47.108Z,88.9
2022-09-06T07:15:47.710Z,89.0
2022-09-06T07:16:48.358Z,89.2
2022-09-06T07:17:48.955Z,88.6
2022-09-06T07:18:49.557Z,88.5
2022-09-06T07:21:53.352Z,87.6
2022-09-06T07:22:54.035Z,85.8
2022-09-06T07:24:10.426Z,85.0
2022-09-06T07:24:56.171Z,84.9
2022-09-06T07:25:56.774Z,81.5
2022-09-06T07:28:00.584Z,78.3
2022-09-06T07:29:00.573Z,79.0
2022-09-06T07:30:01.175Z,77.7
2022-09-06T07:31:01.806Z,77.0
2022-09-06T07:33:03.975Z,75.1
2022-09-06T07:34:04.577Z,78.7
2022-09-06T07:35:05.184Z,78.1
2022-09-06T07:36:05.785Z,78.0
2022-09-06T07:37:06.389Z,78.1
2022-09-06T07:38:06.988Z,78.9
2022-09-06T07:39:07.589Z,78.9
2022-09-06T07:40:08.287Z,79.5
2022-09-06T07:41:08.881Z,79.6
2022-09-06T07:42:09.483Z,79.8
2022-09-06T07:43:10.087Z,80.2
2022-09-06T07:44:10.697Z,80.0
2022-09-06T07:45:11.291Z,79.7
2022-09-06T07:46:11.893Z,80.3
2022-09-06T07:48:14.091Z,80.6
2022-09-06T07:49:14.693Z,80.7
2022-09-06T07:51:16.909Z,80.9
2022-09-06T07:53:26.356Z,81.7
2022-09-06T07:54:36.111Z,81.7
2022-09-06T07:55:22.294Z,81.3
2022-09-06T07:56:22.900Z,81.2
2022-09-06T07:57:23.499Z,81.7
2022-09-06T07:58:24.101Z,81.0
2022-09-06T07:59:24.710Z,81.5
2022-09-06T08:00:25.310Z,81.1
2022-09-06T08:01:26.010Z,81.5
2022-09-06T08:02:26.656Z,80.4
2022-09-06T08:03:27.198Z,81.1
2022-09-06T08:04:27.791Z,80.8
2022-09-06T08:06:30.081Z,80.2
2022-09-06T08:09:33.832Z,80.9
2022-09-06T08:10:34.425Z,80.9
2022-09-06T08:11:35.028Z,80.1
2022-09-06T08:12:35.630Z,80.5
2022-09-06T08:13:36.252Z,80.3
2022-09-06T08:14:36.853Z,80.5
2022-09-06T08:15:41.122Z,80.1
2022-09-06T08:16:39.115Z,79.6
2022-09-06T08:17:39.660Z,80.6
2022-09-06T08:18:40.259Z,80.0
2022-09-06T08:19:40.862Z,80.0
2022-09-06T08:20:41.484Z,79.2
2022-09-06T08:21:42.086Z,79.7
2022-09-06T08:22:42.686Z,78.9
2022-09-06T08:23:43.287Z,79.8
2022-09-06T08:24:43.888Z,79.7
2022-09-06T08:25:44.491Z,80.0
2022-09-06T08:26:45.091Z,79.7
2022-09-06T08:27:45.691Z,78.9
2022-09-06T08:28:46.291Z,79.4
2022-09-06T08:29:46.894Z,80.0
2022-09-06T08:30:47.495Z,79.4
2022-09-06T08:31:48.133Z,78.7
2022-09-06T08:32:48.699Z,77.9
2022-09-06T08:33:49.303Z,78.9
2022-09-06T08:34:49.905Z,78.8
2022-09-06T08:35:50.527Z,78.3
2022-09-06T08:36:51.129Z,78.5
2022-09-06T08:37:51.732Z,76.7
2022-09-06T08:38:52.332Z,78.5
2022-09-06T08:39:53.017Z,78.5
2022-09-06T08:40:53.562Z,78.5
2022-09-06T08:41:54.166Z,76.9
2022-09-06T08:42:54.786Z,77.0
2022-09-06T08:44:57.741Z,78.2
2022-09-06T08:45:58.580Z,78.3
2022-09-06T08:46:59.252Z,78.4
2022-09-06T08:47:59.875Z,78.1
2022-09-06T08:49:00.477Z,78.7
2022-09-06T08:50:01.078Z,78.3
2022-09-06T08:51:01.678Z,78.9
2022-09-06T08:52:02.301Z,77.6
2022-09-06T08:53:18.450Z,78.9
2022-09-06T08:54:04.497Z,78.8
2022-09-06T08:55:05.097Z,77.9
2022-09-06T08:56:05.702Z,78.4
2022-09-06T08:57:06.300Z,78.3
2022-09-06T08:58:06.903Z,78.1
2022-09-06T08:59:07.502Z,77.3
2022-09-06T09:00:10.457Z,77.9
2022-09-06T09:01:09.798Z,77.1
2022-09-06T09:02:10.337Z,78.5
2022-09-06T09:03:15.908Z,78.1
2022-09-06T09:04:12.514Z,77.2
2022-09-06T09:05:13.113Z,77.9
2022-09-06T09:06:13.717Z,77.1
2022-09-06T09:07:14.315Z,77.9
2022-09-06T09:08:16.059Z,77.6
2022-09-06T09:09:16.513Z,76.5
2022-09-06T09:10:17.163Z,76.6
2022-09-06T09:11:17.731Z,76.6
2022-09-06T09:12:18.350Z,76.3
2022-09-06T09:13:18.955Z,76.0
2022-09-06T09:14:19.558Z,75.8
2022-09-06T09:15:20.157Z,75.8
2022-09-06T09:16:20.833Z,76.3
2022-09-06T09:17:21.401Z,76.0
2022-09-06T09:18:22.026Z,75.2
2022-09-06T09:19:22.602Z,75.4
2022-09-06T09:20:23.203Z,75.4
2022-09-06T09:21:26.920Z,75.4
2022-09-06T09:22:25.422Z,74.8
2022-09-06T09:23:25.997Z,75.3
2022-09-06T09:24:26.602Z,74.8
2022-09-06T09:25:27.200Z,74.2
2022-09-06T09:26:27.821Z,74.8
2022-09-06T09:27:28.424Z,74.1
2022-09-06T09:28:29.194Z,74.1
2022-09-06T09:29:34.386Z,73.5
2022-09-06T09:31:33.085Z,73.8
2022-09-06T09:32:33.630Z,73.3
2022-09-06T09:33:34.233Z,73.9
2022-09-06T09:34:34.836Z,73.6
2022-09-06T09:35:35.441Z,71.6
2022-09-06T09:36:36.042Z,72.0
2022-09-06T09:37:56.033Z,72.1
2022-09-06T09:38:38.241Z,73.1
2022-09-06T09:39:38.875Z,72.3
2022-09-06T09:40:39.446Z,71.5
2022-09-06T09:41:40.047Z,71.4
2022-09-06T09:42:40.651Z,71.3
2022-09-06T09:43:41.255Z,72.0
2022-09-06T09:44:41.878Z,71.5
2022-09-06T09:45:42.481Z,70.3
2022-09-06T09:46:43.156Z,70.3
2022-09-06T09:47:43.752Z,70.2
2022-09-06T09:48:44.353Z,70.4
2022-09-06T09:49:44.974Z,70.3
2022-09-06T09:50:45.597Z,70.1
2022-09-06T09:51:46.202Z,68.9
2022-09-06T09:52:46.802Z,69.4
2022-09-06T09:53:47.406Z,69.1
2022-09-06T09:54:48.016Z,69.8
2022-09-06T09:55:48.615Z,70.1
2022-09-06T09:56:49.217Z,69.4
2022-09-06T09:57:49.838Z,68.6
2022-09-06T09:58:50.440Z,68.2
2022-09-06T09:59:51.044Z,68.6
2022-09-06T10:00:51.678Z,68.4
2022-09-06T10:01:52.253Z,66.5
2022-09-06T10:02:52.858Z,66.9
2022-09-06T10:04:55.054Z,67.0
2022-09-06T10:06:02.065Z,67.0
2022-09-06T10:07:12.598Z,65.4
2022-09-06T10:07:58.856Z,65.9
2022-09-06T10:08:59.455Z,66.5
2022-09-06T10:10:00.069Z,66.1
2022-09-06T10:11:00.660Z,66.3
2022-09-06T10:12:01.264Z,67.6
2022-09-06T10:13:01.868Z,66.1
2022-09-06T10:14:02.470Z,66.2
2022-09-06T10:15:06.949Z,67.0
2022-09-06T10:16:04.705Z,66.8
2022-09-06T10:17:05.289Z,66.9
2022-09-06T10:18:05.893Z,67.7
2022-09-06T10:19:06.497Z,68.8
2022-09-06T10:20:07.121Z,66.6
2022-09-06T10:21:07.722Z,66.6
2022-09-06T10:22:08.327Z,66.5
2022-09-06T10:23:08.930Z,66.0
2022-09-06T10:25:11.133Z,65.6
2022-09-06T10:26:11.735Z,64.2
2022-09-06T10:27:12.337Z,64.4
2022-09-06T10:28:12.940Z,63.9
2022-09-06T10:29:13.543Z,63.4
2022-09-06T10:30:14.165Z,63.0
2022-09-06T10:31:14.865Z,62.8
2022-09-06T10:32:15.399Z,63.0
2022-09-06T10:33:16.002Z,62.9
2022-09-06T10:34:16.601Z,63.1
2022-09-06T10:35:17.202Z,63.2
2022-09-06T10:36:17.809Z,63.3
2022-09-06T10:37:18.412Z,62.2
2022-09-06T10:38:19.039Z,62.6
2022-09-06T10:39:19.637Z,61.0
2022-09-06T10:40:20.245Z,61.2
2022-09-06T10:41:20.847Z,61.2
2022-09-06T10:42:21.451Z,61.0
2022-09-06T10:43:22.052Z,61.3
2022-09-06T10:44:22.658Z,61.6
2022-09-06T10:45:23.265Z,60.0
2022-09-06T10:46:23.956Z,59.8
2022-09-06T10:47:24.551Z,60.2
2022-09-06T10:48:25.175Z,60.7
2022-09-06T10:49:25.776Z,61.3
2022-09-06T10:50:26.381Z,60.9
2022-09-06T10:51:27.005Z,60.8
2022-09-06T10:52:27.606Z,60.6
2022-09-06T10:53:28.210Z,59.0
2022-09-06T10:54:28.824Z,60.0
2022-09-06T10:55:29.418Z,59.9
2022-09-06T10:56:30.047Z,60.7
2022-09-06T11:00:35.315Z,59.3
2022-09-06T11:01:36.046Z,60.0
2022-09-06T11:02:36.841Z,60.0
2022-09-06T11:05:40.675Z,59.8
2022-09-06T11:06:41.256Z,58.8
2022-09-06T11:07:42.033Z,59.0
2022-09-06T11:09:44.214Z,58.9
2022-09-06T11:10:44.819Z,58.2
2022-09-06T11:11:45.443Z,58.9
2022-09-06T11:12:46.046Z,58.9
2022-09-06T11:13:46.652Z,59.7
2022-09-06T11:14:47.259Z,60.2
2022-09-06T11:15:47.936Z,59.5
2022-09-06T11:16:48.520Z,58.3
2022-09-06T11:17:49.124Z,58.9
2022-09-06T11:18:49.730Z,58.4
2022-09-06T11:19:50.333Z,58.5
2022-09-06T11:20:50.937Z,59.1
2022-09-06T11:21:51.541Z,58.8
2022-09-06T11:22:52.145Z,58.1
2022-09-06T11:23:52.770Z,57.5
2022-09-06T11:24:53.396Z,57.4
2022-09-06T11:25:54.004Z,57.6
2022-09-06T11:26:54.622Z,58.1
2022-09-06T11:27:58.105Z,58.1
2022-09-06T11:28:55.849Z,57.5
2022-09-06T11:29:56.535Z,57.1
2022-09-06T11:30:57.196Z,56.0
2022-09-06T11:32:59.353Z,57.1
2022-09-06T11:34:01.224Z,57.4
2022-09-06T11:35:01.554Z,56.3
2022-09-06T11:36:02.159Z,56.3
2022-09-06T11:37:02.764Z,57.5
2022-09-06T11:38:03.365Z,57.3
2022-09-06T11:39:03.969Z,56.1
2022-09-06T11:41:08.102Z,54.6
2022-09-06T11:42:07.764Z,55.1
2022-09-06T11:43:08.368Z,55.5
2022-09-06T11:44:08.971Z,54.3
2022-09-06T11:45:09.595Z,54.5
2022-09-06T11:46:10.242Z,54.9
2022-09-06T11:47:10.803Z,54.9
2022-09-06T11:48:11.407Z,54.8
2022-09-06T11:49:12.010Z,54.2
2022-09-06T11:50:12.616Z,54.9
2022-09-06T11:51:13.239Z,54.9
2022-09-06T11:52:13.861Z,54.2
2022-09-06T11:53:14.468Z,54.9
2022-09-06T11:54:15.068Z,54.1
2022-09-06T11:55:18.047Z,54.3
2022-09-06T11:56:17.273Z,53.8
2022-09-06T11:57:17.881Z,54.7
2022-09-06T11:58:18.486Z,54.8
2022-09-06T11:59:19.087Z,54.8
2022-09-06T12:00:19.711Z,53.5
2022-09-06T12:01:20.316Z,54.6
2022-09-06T12:02:20.997Z,52.9
2022-09-06T12:04:23.197Z,53.7
2022-09-06T12:05:23.800Z,54.3
2022-09-06T12:06:24.403Z,55.0
2022-09-06T12:07:25.006Z,53.5
2022-09-06T12:08:25.608Z,53.5
2022-09-06T12:09:26.211Z,53.2
2022-09-06T12:10:26.877Z,53.7
2022-09-06T12:11:30.361Z,53.5
2022-09-06T12:12:28.058Z,53.2
2022-09-06T12:13:28.664Z,53.2
2022-09-06T12:14:29.267Z,53.7
2022-09-06T12:15:29.872Z,52.8
2022-09-06T12:16:30.523Z,53.0
2022-09-06T12:17:31.121Z,52.9
2022-09-06T12:18:31.725Z,52.4
2022-09-06T12:19:32.324Z,53.0
2022-09-06T12:20:32.925Z,51.8
2022-09-06T12:21:33.533Z,53.0
2022-09-06T12:22:34.151Z,51.8
2022-09-06T12:23:34.762Z,52.2
2022-09-06T12:24:35.378Z,52.2
2022-09-06T12:25:35.966Z,52.7
2022-09-06T12:26:36.569Z,52.2
2022-09-06T12:27:37.173Z,52.0
2022-09-06T12:28:37.775Z,51.9
2022-09-06T12:29:38.381Z,51.5
2022-09-06T12:30:39.001Z,52.6
2022-09-06T12:31:39.729Z,53.0
2022-09-06T12:32:40.318Z,51.6
2022-09-06T12:33:40.921Z,52.2
2022-09-06T12:34:41.523Z,52.3
2022-09-06T12:35:57.827Z,52.5
2022-09-06T12:36:43.722Z,52.0
2022-09-06T12:37:44.329Z,52.5
2022-09-06T12:38:44.933Z,52.3
2022-09-06T12:39:45.567Z,52.4
2022-09-06T12:40:46.156Z,51.7
2022-09-06T12:41:46.761Z,51.6
2022-09-06T12:42:47.366Z,51.9
2022-09-06T12:43:47.970Z,51.4
2022-09-06T12:44:48.574Z,51.8
2022-09-06T12:45:49.178Z,50.5
2022-09-06T12:46:49.846Z,51.3
2022-09-06T12:47:50.403Z,51.2
2022-09-06T12:48:51.005Z,51.4
2022-09-06T12:49:51.627Z,52.1
2022-09-06T12:50:52.231Z,51.2
2022-09-06T12:51:52.836Z,52.0
2022-09-06T12:52:53.443Z,51.4
2022-09-06T12:53:54.063Z,51.0
2022-09-06T12:54:54.666Z,51.6
2022-09-06T12:55:55.271Z,51.3
2022-09-06T12:56:55.873Z,51.7
2022-09-06T12:57:56.478Z,52.3
2022-09-06T12:58:57.080Z,51.3
2022-09-06T12:59:57.706Z,51.4
2022-09-06T13:00:58.312Z,51.0
2022-09-06T13:01:58.991Z,51.0
2022-09-06T13:02:59.686Z,51.9
2022-09-06T13:04:00.259Z,51.1
2022-09-06T13:05:00.863Z,50.5
2022-09-06T13:06:01.475Z,51.1
2022-09-06T13:07:02.074Z,50.0
2022-09-06T13:08:02.685Z,50.0
2022-09-06T13:09:03.324Z,50.1
2022-09-06T13:10:03.978Z,50.4
2022-09-06T13:11:04.579Z,49.6
2022-09-06T13:12:05.185Z,50.2
2022-09-06T13:13:05.789Z,51.3
2022-09-06T13:14:08.081Z,51.4
2022-09-06T13:15:07.991Z,51.0
2022-09-06T13:16:08.721Z,51.3
2022-09-06T13:17:09.302Z,51.5
2022-09-06T13:18:09.928Z,50.7
2022-09-06T13:19:10.531Z,51.3
2022-09-06T13:20:11.138Z,51.3
2022-09-06T13:21:11.743Z,51.9
2022-09-06T13:22:12.349Z,51.4
2022-09-06T13:23:12.954Z,52.0
2022-09-06T13:24:13.558Z,51.7
2022-09-06T13:25:15.889Z,51.3
2022-09-06T13:26:15.760Z,50.3
2022-09-06T13:27:16.364Z,49.9
2022-09-06T13:28:16.969Z,50.1
2022-09-06T13:29:17.587Z,51.2
2022-09-06T13:30:18.178Z,50.4
2022-09-06T13:31:18.835Z,51.3
2022-09-06T13:32:19.394Z,50.5
2022-09-06T13:33:19.998Z,50.2
2022-09-06T13:34:20.603Z,51.1
2022-09-06T13:35:21.204Z,50.6
2022-09-06T13:36:21.808Z,51.5
2022-09-06T13:37:22.411Z,50.9
2022-09-06T13:38:23.085Z,50.2
2022-09-06T13:39:23.768Z,51.1
2022-09-06T13:40:24.270Z,51.0
2022-09-06T13:41:24.874Z,51.8
2022-09-06T13:42:25.475Z,50.9
2022-09-06T13:43:26.079Z,50.8
2022-09-06T13:44:26.682Z,51.2
2022-09-06T13:45:27.305Z,50.5
2022-09-06T13:46:27.970Z,50.2
2022-09-06T13:47:28.536Z,51.3
2022-09-06T13:48:29.502Z,50.3
2022-09-06T13:49:30.049Z,51.0
2022-09-06T13:50:30.658Z,51.0
2022-09-06T13:51:31.258Z,51.1
2022-09-06T13:52:31.865Z,52.0
2022-09-06T13:53:32.471Z,51.8